createdAt,value
2018-07-02T00:00:16.448Z,72.72
2018-07-02T00:02:44.821Z,73.59
2018-07-02T00:05:13.182Z,72.90
2018-07-02T00:07:41.545Z,73.36
2018-07-02T00:10:10.316Z,74.02
2018-07-02T00:12:38.768Z,74.09
2018-07-02T00:15:07.369Z,74.82
2018-07-02T00:17:35.740Z,74.29
2018-07-02T00:20:04.783Z,74.54
2018-07-02T00:22:34.782Z,74.79
2018-07-02T00:25:04.428Z,75.06
2018-07-02T00:27:33.841Z,75.21
2018-07-02T00:30:03.363Z,75.74
2018-07-02T00:32:32.914Z,76.21
2018-07-02T00:35:01.410Z,76.08
2018-07-02T00:37:32.037Z,75.96
2018-07-02T00:40:01.515Z,75.71
2018-07-02T00:42:31.772Z,77.08
2018-07-02T00:45:02.114Z,77.42
2018-07-02T00:47:33.166Z,77.67
2018-07-02T00:50:01.523Z,76.67
2018-07-02T00:52:32.321Z,76.85
2018-07-02T00:55:01.400Z,77.06
2018-07-02T00:57:30.437Z,77.29
2018-07-02T01:00:12.328Z,77.60
2018-07-02T01:02:40.713Z,78.24
2018-07-02T01:05:09.081Z,79.18
2018-07-02T01:07:37.457Z,78.56
2018-07-02T01:10:05.817Z,79.39
2018-07-02T01:12:34.298Z,79.35
2018-07-02T01:15:03.486Z,80.07
2018-07-02T01:17:32.176Z,80.21
2018-07-02T01:20:01.469Z,80.55
2018-07-02T01:22:31.293Z,81.47
2018-07-02T01:25:00.540Z,80.97
2018-07-02T01:27:33.089Z,80.87
2018-07-02T01:30:02.696Z,82.33
2018-07-02T01:32:33.010Z,82.81
2018-07-02T01:35:03.407Z,84.08
2018-07-02T01:37:33.135Z,83.57
2018-07-02T01:40:03.454Z,84.36
2018-07-02T01:42:33.438Z,84.46
2018-07-02T01:45:03.517Z,84.34
2018-07-02T01:47:34.067Z,84.52
2018-07-02T01:50:03.497Z,84.35
2018-07-02T01:52:33.777Z,85.01
2018-07-02T01:55:02.792Z,85.87
2018-07-02T01:57:32.813Z,86.46
2018-07-02T02:00:03.629Z,87.16
2018-07-02T02:02:32.912Z,86.59
2018-07-02T02:05:02.868Z,86.59
2018-07-02T02:07:31.932Z,86.89
2018-07-02T02:10:02.881Z,86.92
2018-07-02T02:12:32.064Z,86.37
2018-07-02T02:15:02.191Z,86.78
2018-07-02T02:17:32.733Z,87.30
2018-07-02T02:20:02.357Z,87.35
2018-07-02T02:22:32.222Z,88.91
2018-07-02T02:25:02.922Z,89.01
2018-07-02T02:27:32.045Z,89.50
2018-07-02T02:30:02.684Z,88.79
2018-07-02T02:32:31.858Z,89.51
2018-07-02T02:35:02.389Z,90.10
2018-07-02T02:37:32.007Z,89.70
2018-07-02T02:40:01.751Z,90.56
2018-07-02T02:42:30.570Z,91.23
2018-07-02T02:44:59.433Z,92.39
2018-07-02T02:47:28.358Z,92.24
2018-07-02T02:49:56.705Z,90.82
2018-07-02T02:52:25.061Z,89.94
2018-07-02T02:54:53.417Z,89.79
2018-07-02T02:57:21.776Z,89.67
2018-07-02T02:59:50.117Z,89.33
2018-07-02T03:02:18.485Z,89.33
2018-07-02T03:04:46.831Z,89.72
2018-07-02T03:07:15.193Z,90.15
2018-07-02T03:09:44.430Z,91.48
2018-07-02T03:12:13.624Z,91.99
2018-07-02T03:14:42.846Z,92.58
2018-07-02T03:17:18.762Z,92.77
2018-07-02T03:19:48.133Z,94.21
2018-07-02T03:22:17.357Z,93.88
2018-07-02T03:24:46.581Z,93.97
2018-07-02T03:27:14.925Z,94.71
2018-07-02T03:29:43.256Z,93.90
2018-07-02T03:32:11.596Z,94.77
2018-07-02T03:34:39.945Z,94.71
2018-07-02T03:37:08.301Z,94.87
2018-07-02T03:39:36.633Z,94.55
2018-07-02T03:42:04.965Z,94.02
2018-07-02T03:44:34.192Z,93.50
2018-07-02T03:47:03.229Z,93.68
2018-07-02T03:49:31.573Z,94.27
2018-07-02T03:52:01.838Z,94.39
2018-07-02T03:54:31.793Z,94.67
2018-07-02T03:57:01.789Z,94.60
2018-07-02T03:59:31.063Z,94.67
2018-07-02T04:02:00.700Z,94.47
2018-07-02T04:04:29.528Z,94.37
2018-07-02T04:06:58.524Z,94.33
2018-07-02T04:09:26.876Z,93.97
2018-07-02T04:11:55.240Z,93.82
2018-07-02T04:14:23.629Z,93.36
2018-07-02T04:16:52.002Z,93.57
2018-07-02T04:19:20.356Z,93.49
2018-07-02T04:21:48.717Z,93.62
2018-07-02T04:24:17.085Z,93.14
2018-07-02T04:26:45.511Z,92.92
2018-07-02T04:29:13.877Z,92.54
2018-07-02T04:31:42.213Z,92.32
2018-07-02T04:34:10.618Z,92.42
2018-07-02T04:36:38.993Z,91.59
2018-07-02T04:39:08.330Z,91.06
2018-07-02T04:41:37.035Z,90.98
2018-07-02T04:44:05.816Z,91.37
2018-07-02T04:46:34.181Z,91.64
2018-07-02T04:49:02.988Z,91.72
2018-07-02T04:51:31.984Z,91.05
2018-07-02T04:54:02.197Z,90.95
2018-07-02T04:56:31.788Z,91.14
2018-07-02T04:59:01.823Z,90.78
2018-07-02T05:01:31.817Z,90.00
2018-07-02T05:04:00.570Z,90.30
2018-07-02T05:06:29.517Z,89.05
2018-07-02T05:08:58.452Z,89.73
2018-07-02T05:11:26.794Z,89.41
2018-07-02T05:13:55.388Z,88.77
2018-07-02T05:16:23.733Z,87.68
2018-07-02T05:18:52.053Z,87.42
2018-07-02T05:21:20.389Z,86.56
2018-07-02T05:23:48.713Z,85.90
2018-07-02T05:26:17.053Z,86.42
2018-07-02T05:28:45.403Z,82.40
2018-07-02T05:31:13.744Z,83.82
2018-07-02T05:33:42.073Z,82.69
2018-07-02T05:36:10.408Z,82.01
2018-07-02T05:38:38.711Z,79.25
2018-07-02T05:41:07.042Z,80.35
2018-07-02T05:43:35.375Z,78.16
2018-07-02T05:46:03.705Z,77.40
2018-07-02T05:48:33.246Z,77.13
2018-07-02T05:51:02.666Z,75.02
2018-07-02T05:53:33.285Z,74.98
2018-07-02T05:56:02.710Z,75.48
2018-07-02T05:58:33.129Z,74.69
2018-07-02T06:01:01.472Z,72.61
2018-07-02T06:03:31.803Z,72.70
2018-07-02T06:06:02.082Z,72.16
2018-07-02T06:08:32.837Z,70.56
2018-07-02T06:11:02.909Z,70.36
2018-07-02T06:13:32.045Z,68.79
2018-07-02T06:16:02.026Z,69.21
2018-07-02T06:18:31.967Z,69.12
2018-07-02T06:21:00.427Z,69.42
2018-07-02T06:23:30.513Z,69.77
2018-07-02T06:25:59.665Z,68.99
2018-07-02T06:28:28.561Z,68.80
2018-07-02T06:30:58.605Z,70.70
2018-07-02T06:33:27.061Z,66.19
2018-07-02T06:35:55.380Z,66.99
2018-07-02T06:38:24.702Z,66.45
2018-07-02T06:40:53.022Z,67.77
2018-07-02T06:43:22.237Z,66.54
2018-07-02T06:45:51.441Z,64.29
2018-07-02T06:48:20.702Z,63.80
2018-07-02T06:50:49.971Z,62.32
2018-07-02T06:53:19.257Z,64.15
2018-07-02T06:55:48.477Z,62.70
2018-07-02T06:58:17.697Z,61.51
2018-07-02T07:00:46.076Z,61.45
2018-07-02T07:03:15.305Z,63.93
2018-07-02T07:05:44.526Z,61.34
2018-07-02T07:08:13.756Z,60.98
2018-07-02T07:10:43.122Z,58.35
2018-07-02T07:13:12.454Z,57.65
2018-07-02T07:15:40.882Z,58.89
2018-07-02T07:18:10.345Z,56.23
2018-07-02T07:20:38.713Z,58.73
2018-07-02T07:23:08.057Z,54.56
2018-07-02T07:25:36.389Z,56.01
2018-07-02T07:28:05.616Z,55.35
2018-07-02T07:30:33.971Z,56.62
2018-07-02T07:33:03.413Z,55.30
2018-07-02T07:35:33.442Z,57.19
2018-07-02T07:38:02.913Z,55.31
2018-07-02T07:40:33.260Z,55.83
2018-07-02T07:43:01.675Z,55.40
2018-07-02T07:45:30.601Z,53.85
2018-07-02T07:48:00.549Z,51.76
2018-07-02T07:50:29.749Z,53.58
2018-07-02T07:52:59.160Z,52.27
2018-07-02T07:55:27.517Z,50.63
2018-07-02T07:57:55.865Z,50.34
2018-07-02T08:00:24.238Z,52.02
2018-07-02T08:02:52.595Z,49.47
2018-07-02T08:05:20.928Z,46.54
2018-07-02T08:07:49.285Z,47.35
2018-07-02T08:10:17.625Z,48.14
2018-07-02T08:12:45.974Z,49.35
2018-07-02T08:15:14.325Z,47.37
2018-07-02T08:17:42.817Z,47.00
2018-07-02T08:20:11.153Z,45.08
2018-07-02T08:22:39.512Z,44.82
2018-07-02T08:25:07.867Z,46.34
2018-07-02T08:27:36.223Z,43.66
2018-07-02T08:30:06.697Z,45.47
2018-07-02T08:32:35.094Z,44.29
2018-07-02T08:35:03.447Z,46.63
2018-07-02T08:37:33.762Z,44.97
2018-07-02T08:40:02.735Z,43.75
2018-07-02T08:42:33.713Z,42.13
2018-07-02T08:45:03.408Z,42.55
2018-07-02T08:47:32.793Z,42.65
2018-07-02T08:50:02.828Z,42.63
2018-07-02T08:52:32.036Z,43.01
2018-07-02T08:55:00.528Z,41.56
2018-07-02T08:57:30.821Z,42.21
2018-07-02T08:59:59.176Z,42.06
2018-07-02T09:02:27.508Z,42.77
2018-07-02T09:04:55.848Z,42.51
2018-07-02T09:07:25.248Z,44.41
2018-07-02T09:09:53.598Z,41.58
2018-07-02T09:12:22.816Z,38.97
2018-07-02T09:14:51.422Z,40.08
2018-07-02T09:17:19.537Z,42.49
2018-07-02T09:19:48.084Z,42.19
2018-07-02T09:22:16.481Z,39.43
2018-07-02T09:24:44.857Z,38.29
2018-07-02T09:27:13.240Z,40.15
2018-07-02T09:29:41.614Z,41.87
2018-07-02T09:32:09.957Z,38.59
2018-07-02T09:34:39.164Z,38.25
2018-07-02T09:37:07.522Z,40.10
2018-07-02T09:39:35.849Z,42.68
2018-07-02T09:42:04.200Z,40.87
2018-07-02T09:44:33.269Z,39.59
2018-07-02T09:47:02.574Z,40.47
2018-07-02T09:49:33.033Z,40.66
2018-07-02T09:52:02.105Z,40.96
2018-07-02T09:54:30.486Z,40.26
2018-07-02T09:56:58.900Z,35.46
2018-07-02T09:59:27.243Z,38.05
2018-07-02T10:01:55.765Z,40.43
2018-07-02T10:04:24.089Z,40.86
2018-07-02T10:06:52.422Z,39.54
2018-07-02T10:09:20.776Z,38.29
2018-07-02T10:11:49.096Z,38.97
2018-07-02T10:14:17.447Z,38.41
2018-07-02T10:16:45.770Z,36.73
2018-07-02T10:19:14.113Z,37.43
2018-07-02T10:21:42.442Z,38.73
2018-07-02T10:24:11.909Z,37.11
2018-07-02T10:26:40.303Z,38.33
2018-07-02T10:29:08.896Z,37.38
2018-07-02T10:31:37.922Z,38.05
2018-07-02T10:34:06.491Z,36.08
2018-07-02T10:36:34.812Z,36.51
2018-07-02T10:39:04.970Z,36.28
2018-07-02T10:41:34.815Z,39.75
2018-07-02T10:44:03.899Z,38.32
2018-07-02T10:46:33.125Z,37.60
2018-07-02T10:49:01.517Z,37.85
2018-07-02T10:51:32.946Z,36.21
2018-07-02T10:54:03.618Z,36.64
2018-07-02T10:56:33.481Z,36.42
2018-07-02T10:59:03.559Z,36.41
2018-07-02T11:01:33.445Z,35.84
2018-07-02T11:04:03.372Z,36.33
2018-07-02T11:06:33.089Z,37.70
2018-07-02T11:09:03.425Z,36.68
2018-07-02T11:11:33.938Z,37.22
2018-07-02T11:14:04.280Z,36.69
2018-07-02T11:16:33.564Z,35.83
2018-07-02T11:19:02.692Z,36.97
2018-07-02T11:21:32.774Z,36.40
2018-07-02T11:24:03.098Z,36.00
2018-07-02T11:26:33.457Z,35.81
2018-07-02T11:29:03.453Z,35.99
2018-07-02T11:31:34.190Z,32.75
2018-07-02T11:34:04.885Z,33.03
2018-07-02T11:36:34.109Z,33.60
2018-07-02T11:39:07.703Z,34.73
2018-07-02T11:41:37.066Z,35.76
2018-07-02T11:44:06.445Z,35.09
2018-07-02T11:46:35.943Z,37.74
2018-07-02T11:49:05.317Z,34.98
2018-07-02T11:51:33.647Z,36.30
2018-07-02T11:54:03.522Z,37.97
2018-07-02T11:56:32.821Z,37.38
2018-07-02T11:59:02.876Z,37.03
2018-07-02T12:01:35.534Z,37.73
2018-07-02T12:04:04.302Z,33.72
2018-07-02T12:06:33.963Z,32.78
2018-07-02T12:09:03.034Z,35.21
2018-07-02T12:11:34.029Z,32.55
2018-07-02T12:14:03.494Z,36.20
2018-07-02T12:16:32.473Z,34.31
2018-07-02T12:19:03.098Z,35.10
2018-07-02T12:21:31.474Z,36.98
2018-07-02T12:23:59.885Z,35.91
2018-07-02T12:26:28.926Z,35.65
2018-07-02T12:28:57.255Z,36.00
2018-07-02T12:31:25.587Z,36.28
2018-07-02T12:33:53.925Z,37.95
2018-07-02T12:36:22.251Z,36.37
2018-07-02T12:38:51.597Z,35.04
2018-07-02T12:41:19.898Z,33.63
2018-07-02T12:43:48.237Z,32.38
2018-07-02T12:46:16.559Z,31.40
2018-07-02T12:48:45.791Z,31.36
2018-07-02T12:51:14.122Z,31.42
2018-07-02T12:53:42.448Z,32.90
2018-07-02T12:56:10.773Z,30.12
2018-07-02T12:58:40.176Z,31.76
2018-07-02T13:01:08.597Z,31.65
2018-07-02T13:03:36.926Z,32.78
2018-07-02T13:06:05.534Z,33.13
2018-07-02T13:08:33.927Z,33.34
2018-07-02T13:11:02.522Z,33.64
2018-07-02T13:13:33.217Z,34.56
2018-07-02T13:16:02.839Z,33.39
2018-07-02T13:18:31.882Z,32.56
2018-07-02T13:21:02.058Z,29.38
2018-07-02T13:23:32.026Z,31.70
2018-07-02T13:26:01.818Z,31.92
2018-07-02T13:28:31.939Z,31.11
2018-07-02T13:31:02.117Z,29.25
2018-07-02T13:33:31.511Z,30.46
2018-07-02T13:36:00.602Z,30.29
2018-07-02T13:38:29.037Z,30.83
2018-07-02T13:40:57.398Z,31.52
2018-07-02T13:43:25.748Z,31.66
2018-07-02T13:45:54.094Z,31.79
2018-07-02T13:48:22.447Z,37.67
2018-07-02T13:50:50.814Z,32.61
2018-07-02T13:53:19.222Z,32.48
2018-07-02T13:55:47.657Z,32.42
2018-07-02T13:58:16.845Z,30.47
2018-07-02T14:00:46.094Z,30.90
2018-07-02T14:03:15.283Z,30.87
2018-07-02T14:05:44.510Z,30.09
2018-07-02T14:08:13.834Z,30.15
2018-07-02T14:10:43.290Z,30.17
2018-07-02T14:13:12.617Z,27.59
2018-07-02T14:15:41.938Z,26.18
2018-07-02T14:18:11.295Z,26.18
2018-07-02T14:20:40.533Z,26.00
2018-07-02T14:23:09.741Z,26.95
2018-07-02T14:25:38.305Z,27.60
2018-07-02T14:28:06.735Z,30.74
2018-07-02T14:30:35.066Z,28.21
2018-07-02T14:33:04.825Z,29.43
2018-07-02T14:35:33.918Z,28.78
2018-07-02T14:38:02.970Z,32.77
2018-07-02T14:40:34.655Z,30.14
2018-07-02T14:43:03.807Z,30.73
2018-07-02T14:45:33.315Z,29.98
2018-07-02T14:48:01.541Z,30.62
2018-07-02T14:50:31.524Z,30.85
2018-07-02T14:52:59.976Z,30.26
2018-07-02T14:55:28.854Z,34.24
2018-07-02T14:57:57.205Z,32.68
2018-07-02T15:00:25.521Z,32.90
2018-07-02T15:02:53.846Z,32.54
2018-07-02T15:05:22.175Z,35.99
2018-07-02T15:07:50.879Z,37.17
2018-07-02T15:10:19.209Z,33.22
2018-07-02T15:12:48.064Z,35.15
2018-07-02T15:15:16.389Z,34.38
2018-07-02T15:17:45.578Z,35.64
2018-07-02T15:20:14.774Z,32.38
2018-07-02T15:22:44.393Z,33.16
2018-07-02T15:25:12.717Z,29.44
2018-07-02T15:27:41.038Z,30.57
2018-07-02T15:30:11.065Z,26.72
2018-07-02T15:32:39.460Z,28.05
2018-07-02T15:35:07.781Z,26.36
2018-07-02T15:37:36.126Z,28.01
2018-07-02T15:40:05.478Z,26.50
2018-07-02T15:42:33.817Z,26.14
2018-07-02T15:45:03.723Z,24.18
2018-07-02T15:47:33.141Z,25.66
2018-07-02T15:50:03.073Z,24.81
2018-07-02T15:52:33.066Z,26.68
2018-07-02T15:55:03.313Z,25.91
2018-07-02T15:57:33.407Z,26.55
2018-07-02T16:00:03.174Z,26.11
2018-07-02T16:02:33.557Z,27.88
2018-07-02T16:05:02.856Z,27.73
2018-07-02T16:07:32.523Z,27.65
2018-07-02T16:10:02.651Z,27.94
2018-07-02T16:12:33.018Z,28.00
2018-07-02T16:15:03.230Z,29.08
2018-07-02T16:17:32.617Z,27.65
2018-07-02T16:20:04.385Z,27.87
2018-07-02T16:22:33.873Z,29.73
2018-07-02T16:25:02.692Z,28.62
2018-07-02T16:27:33.749Z,28.17
2018-07-02T16:30:03.018Z,28.93
2018-07-02T16:32:33.458Z,28.96
2018-07-02T16:35:02.853Z,29.98
2018-07-02T16:37:31.441Z,28.84
2018-07-02T16:40:01.457Z,30.56
2018-07-02T16:42:31.989Z,29.91
2018-07-02T16:45:01.389Z,32.86
2018-07-02T16:47:31.525Z,32.04
2018-07-02T16:50:01.593Z,31.57
2018-07-02T16:52:31.959Z,33.58
2018-07-02T16:55:00.441Z,32.47
2018-07-02T16:57:29.375Z,32.88
2018-07-02T16:59:57.722Z,33.98
2018-07-02T17:02:27.094Z,34.47
2018-07-02T17:04:56.405Z,35.09
2018-07-02T17:07:25.618Z,35.39
2018-07-02T17:09:53.957Z,39.93
2018-07-02T17:12:22.301Z,34.87
2018-07-02T17:14:51.657Z,36.48
2018-07-02T17:17:20.145Z,38.36
2018-07-02T17:19:49.353Z,36.60
2018-07-02T17:22:17.698Z,37.16
2018-07-02T17:24:47.033Z,34.07
2018-07-02T17:27:16.254Z,36.07
2018-07-02T17:29:44.655Z,37.05
2018-07-02T17:32:12.984Z,37.10
2018-07-02T17:34:41.316Z,39.39
2018-07-02T17:37:09.641Z,41.88
2018-07-02T17:39:38.007Z,38.97
2018-07-02T17:42:06.677Z,40.94
2018-07-02T17:44:35.003Z,42.87
2018-07-02T17:47:04.969Z,39.79
2018-07-02T17:49:34.034Z,38.33
2018-07-02T17:52:03.488Z,38.45
2018-07-02T17:54:33.021Z,34.99
2018-07-02T17:57:02.493Z,35.21
2018-07-02T17:59:33.346Z,35.01
2018-07-02T18:02:02.205Z,35.27
2018-07-02T18:04:32.794Z,33.85
2018-07-02T18:07:02.967Z,34.30
2018-07-02T18:09:32.767Z,34.54
2018-07-02T18:12:03.101Z,35.50
2018-07-02T18:14:33.401Z,36.29
2018-07-02T18:17:02.725Z,36.01
2018-07-02T18:19:32.781Z,37.46
2018-07-02T18:22:02.842Z,37.94
2018-07-02T18:24:32.775Z,37.49
2018-07-02T18:27:02.865Z,39.16
2018-07-02T18:29:33.293Z,38.52
2018-07-02T18:32:02.773Z,37.98
2018-07-02T18:34:32.976Z,40.14
2018-07-02T18:37:02.188Z,40.04
2018-07-02T18:39:31.580Z,42.28
2018-07-02T18:42:02.053Z,42.51
2018-07-02T18:44:32.328Z,43.42
2018-07-02T18:47:02.854Z,44.04
2018-07-02T18:49:31.485Z,43.62
2018-07-02T18:52:01.325Z,42.56
2018-07-02T18:54:31.597Z,42.91
2018-07-02T18:57:01.513Z,44.28
2018-07-02T18:59:32.094Z,43.44
2018-07-02T19:02:00.503Z,42.96
2018-07-02T19:04:31.351Z,42.88
2018-07-02T19:06:59.809Z,43.01
2018-07-02T19:09:28.146Z,43.85
2018-07-02T19:11:56.480Z,43.74
2018-07-02T19:14:24.814Z,44.29
2018-07-02T19:16:53.155Z,44.76
2018-07-02T19:19:21.489Z,44.86
2018-07-02T19:21:49.837Z,46.00
2018-07-02T19:24:18.172Z,46.63
2018-07-02T19:26:46.571Z,46.76
2018-07-02T19:29:14.897Z,47.01
2018-07-02T19:31:43.249Z,47.18
2018-07-02T19:34:11.585Z,47.38
2018-07-02T19:36:40.957Z,47.54
2018-07-02T19:39:12.120Z,47.91
2018-07-02T19:41:40.445Z,48.35
2018-07-02T19:44:09.038Z,47.73
2018-07-02T19:46:37.400Z,48.12
2018-07-02T19:49:05.750Z,48.38
2018-07-02T19:51:34.989Z,48.87
2018-07-02T19:54:04.605Z,48.77
2018-07-02T19:56:34.067Z,49.44
2018-07-02T19:59:03.557Z,51.24
2018-07-02T20:01:32.433Z,50.60
2018-07-02T20:04:02.124Z,51.27
2018-07-02T20:06:31.449Z,50.24
2018-07-02T20:09:00.881Z,50.97
2018-07-02T20:11:31.243Z,50.73
2018-07-02T20:14:01.579Z,50.89
2018-07-02T20:16:32.689Z,51.75
2018-07-02T20:19:03.108Z,51.40
2018-07-02T20:21:33.729Z,52.09
2018-07-02T20:24:03.589Z,51.41
2018-07-02T20:26:33.881Z,51.79
2018-07-02T20:29:03.599Z,52.03
2018-07-02T20:31:34.635Z,52.63
2018-07-02T20:34:05.861Z,52.60
2018-07-02T20:36:34.477Z,53.08
2018-07-02T20:39:04.732Z,52.85
2018-07-02T20:41:33.680Z,53.17
2018-07-02T20:44:03.432Z,53.51
2018-07-02T20:46:33.686Z,54.05
2018-07-02T20:49:04.545Z,54.15
2018-07-02T20:51:34.146Z,54.34
2018-07-02T20:54:03.243Z,54.60
2018-07-02T20:56:33.198Z,55.18
2018-07-02T20:59:03.470Z,55.10
2018-07-02T21:01:32.137Z,55.51
2018-07-02T21:04:02.372Z,56.01
2018-07-02T21:06:34.317Z,56.59
2018-07-02T21:09:04.366Z,56.06
2018-07-02T21:11:34.092Z,57.09
2018-07-02T21:14:03.494Z,56.95
2018-07-02T21:16:32.561Z,56.68
2018-07-02T21:19:01.952Z,57.63
2018-07-02T21:21:31.553Z,57.58
2018-07-02T21:24:02.766Z,58.44
2018-07-02T21:26:33.037Z,58.70
2018-07-02T21:29:03.746Z,58.80
2018-07-02T21:31:33.159Z,59.74
2018-07-02T21:34:01.542Z,59.48
2018-07-02T21:36:31.351Z,62.70
2018-07-02T21:39:00.890Z,61.68
2018-07-02T21:41:29.273Z,61.00
2018-07-02T21:43:59.537Z,61.11
2018-07-02T21:46:27.866Z,61.15
2018-07-02T21:48:56.212Z,61.24
2018-07-02T21:51:24.567Z,61.65
2018-07-02T21:53:52.897Z,61.65
2018-07-02T21:56:21.228Z,62.22
2018-07-02T21:58:49.577Z,61.85
2018-07-02T22:01:19.938Z,63.45
2018-07-02T22:03:48.368Z,63.29
2018-07-02T22:06:17.122Z,63.45
2018-07-02T22:08:45.662Z,65.13
2018-07-02T22:11:14.070Z,63.21
2018-07-02T22:13:42.445Z,63.82
2018-07-02T22:16:11.813Z,63.49
2018-07-02T22:18:40.243Z,64.10
2018-07-02T22:21:08.638Z,64.54
2018-07-02T22:23:37.996Z,66.43
2018-07-02T22:26:06.424Z,67.51
2018-07-02T22:28:34.845Z,66.21
2018-07-02T22:31:04.101Z,66.98
2018-07-02T22:33:34.813Z,68.67
2018-07-02T22:36:03.805Z,71.64
2018-07-02T22:38:33.160Z,72.30
2018-07-02T22:41:01.501Z,72.56
2018-07-02T22:43:30.969Z,72.09
2018-07-02T22:45:59.598Z,72.02
2018-07-02T22:48:27.976Z,72.44
2018-07-02T22:50:56.293Z,72.98
2018-07-02T22:53:24.609Z,73.41
2018-07-02T22:56:02.014Z,73.24
2018-07-02T22:58:32.688Z,73.31
2018-07-02T23:01:02.219Z,72.97
2018-07-02T23:03:31.515Z,72.15
2018-07-02T23:06:01.134Z,72.60
2018-07-02T23:08:30.954Z,71.58
2018-07-02T23:10:59.321Z,71.21
2018-07-02T23:13:27.645Z,71.60
2018-07-02T23:16:02.499Z,72.64
2018-07-02T23:18:32.537Z,73.15
2018-07-02T23:21:03.461Z,72.99
2018-07-02T23:23:33.481Z,73.46
2018-07-02T23:26:02.889Z,73.73
2018-07-02T23:28:33.320Z,73.90
2018-07-02T23:31:03.125Z,75.86
2018-07-02T23:33:33.290Z,75.65
2018-07-02T23:36:03.083Z,76.47
2018-07-02T23:38:31.534Z,75.73
2018-07-02T23:41:00.937Z,75.77
2018-07-02T23:43:32.689Z,75.86
2018-07-02T23:46:03.332Z,75.30
2018-07-02T23:48:32.909Z,74.87
2018-07-02T23:51:02.802Z,74.45
2018-07-02T23:53:32.826Z,73.86
2018-07-02T23:56:03.018Z,73.27
2018-07-02T23:58:33.330Z,73.15
